createdAt,value
2019-03-05T00:00:48.219Z,93176.58
2019-03-05T00:03:16.823Z,93178.20
2019-03-05T00:05:45.610Z,93175.92
2019-03-05T00:08:14.051Z,93171.05
2019-03-05T00:10:42.662Z,93165.54
2019-03-05T00:13:11.147Z,93170.08
2019-03-05T00:15:39.698Z,93179.77
2019-03-05T00:18:08.201Z,93172.34
2019-03-05T00:20:36.703Z,93179.43
2019-03-05T00:23:05.267Z,93181.72
2019-03-05T00:25:38.258Z,93185.78
2019-03-05T00:28:24.402Z,93185.78
2019-03-05T00:30:58.776Z,93189.84
2019-03-05T00:33:38.821Z,93189.84
2019-03-05T00:36:10.301Z,93183.71
2019-03-05T00:39:10.538Z,93192.91
2019-03-05T00:41:54.188Z,93196.31
2019-03-05T00:44:25.669Z,93196.95
2019-03-05T00:47:20.766Z,93195.68
2019-03-05T00:50:08.944Z,93200.85
2019-03-05T00:52:59.721Z,93198.27
2019-03-05T00:55:49.807Z,93190.14
2019-03-05T00:58:23.939Z,93197.57
2019-03-05T01:01:10.677Z,93197.23
2019-03-05T01:03:54.369Z,93191.07
2019-03-05T01:06:25.175Z,93194.65
2019-03-05T01:08:56.289Z,93188.48
2019-03-05T01:11:25.940Z,93179.43
2019-03-05T01:13:54.497Z,93188.48
2019-03-05T01:16:27.564Z,93184.94
2019-03-05T01:18:56.151Z,93175.25
2019-03-05T01:21:24.640Z,93185.60
2019-03-05T01:23:53.213Z,93163.80
2019-03-05T01:26:21.647Z,93145.18
2019-03-05T01:28:50.133Z,93177.84
2019-03-05T01:31:32.183Z,93161.69
2019-03-05T01:34:02.236Z,93175.92
2019-03-05T01:36:35.381Z,93173.66
2019-03-05T01:39:23.126Z,93174.80
2019-03-05T01:41:51.612Z,93181.45
2019-03-05T01:44:20.067Z,93177.55
2019-03-05T01:46:48.483Z,93180.13
2019-03-05T01:49:16.937Z,93158.16
2019-03-05T01:51:45.566Z,93158.48
2019-03-05T01:54:13.995Z,93168.36
2019-03-05T01:56:42.547Z,93166.91
2019-03-05T01:59:11.051Z,93167.88
2019-03-05T02:01:39.608Z,93158.16
2019-03-05T02:04:08.130Z,93153.62
2019-03-05T02:06:36.615Z,93150.56
2019-03-05T02:09:07.827Z,93150.08
2019-03-05T02:11:36.349Z,93145.54
2019-03-05T02:14:05.068Z,93118.02
2019-03-05T02:16:33.548Z,93129.69
2019-03-05T02:19:27.611Z,93129.68
2019-03-05T02:21:56.223Z,93124.17
2019-03-05T02:24:45.874Z,93123.22
2019-03-05T02:27:41.516Z,93119.01
2019-03-05T02:30:31.236Z,93112.55
2019-03-05T02:33:17.908Z,93117.05
2019-03-05T02:36:17.908Z,93121.91
2019-03-05T02:38:58.406Z,93123.88
2019-03-05T02:41:32.938Z,93132.58
2019-03-05T02:44:07.195Z,93128.37
2019-03-05T02:46:41.284Z,93132.41
2019-03-05T02:49:18.367Z,93121.27
2019-03-05T02:52:06.646Z,93127.11
2019-03-05T02:55:00.797Z,93127.38
2019-03-05T02:57:28.067Z,93138.08
2019-03-05T02:59:56.529Z,93141.63
2019-03-05T03:02:38.651Z,93144.88
2019-03-05T03:05:09.580Z,93142.62
2019-03-05T03:07:38.046Z,93133.89
2019-03-05T03:10:12.527Z,93106.41
2019-03-05T03:12:41.006Z,93106.41
2019-03-05T03:15:10.506Z,93130.50
2019-03-05T03:17:39.096Z,93129.38
2019-03-05T03:20:10.358Z,93138.77
2019-03-05T03:22:38.873Z,93139.41
2019-03-05T03:25:10.152Z,93139.41
2019-03-05T03:27:38.569Z,93147.50
2019-03-05T03:30:10.150Z,93146.55
2019-03-05T03:32:38.586Z,93147.48
2019-03-05T03:35:09.463Z,93149.12
2019-03-05T03:37:37.893Z,93147.98
2019-03-05T03:40:11.824Z,93146.20
2019-03-05T03:42:40.331Z,93143.77
2019-03-05T03:45:11.967Z,93150.39
2019-03-05T03:47:40.537Z,93148.14
2019-03-05T03:50:09.744Z,93155.87
2019-03-05T03:52:38.220Z,93151.38
2019-03-05T03:55:09.478Z,93151.05
2019-03-05T03:57:38.065Z,93148.47
2019-03-05T04:00:09.526Z,93156.22
2019-03-05T04:02:37.983Z,93163.49
2019-03-05T04:05:08.033Z,93155.57
2019-03-05T04:07:36.579Z,93150.07
2019-03-05T04:10:08.367Z,93149.11
2019-03-05T04:12:36.898Z,93149.77
2019-03-05T04:15:08.099Z,93151.22
2019-03-05T04:17:36.436Z,93138.45
2019-03-05T04:20:06.728Z,93148.16
2019-03-05T04:22:35.261Z,93139.55
2019-03-05T04:25:04.253Z,93159.28
2019-03-05T04:27:32.665Z,93165.24
2019-03-05T04:30:01.165Z,93164.61
2019-03-05T04:32:29.665Z,93162.63
2019-03-05T04:34:58.147Z,93168.45
2019-03-05T04:37:26.595Z,93169.41
2019-03-05T04:39:55.007Z,93168.72
2019-03-05T04:42:23.423Z,93172.63
2019-03-05T04:44:53.518Z,93169.05
2019-03-05T04:47:21.934Z,93168.72
2019-03-05T04:49:52.026Z,93165.50
2019-03-05T04:52:21.737Z,93166.50
2019-03-05T04:54:50.182Z,93167.75
2019-03-05T04:57:18.611Z,93170.67
2019-03-05T04:59:47.024Z,93169.75
2019-03-05T05:02:15.487Z,93169.09
2019-03-05T05:04:43.895Z,93173.45
2019-03-05T05:07:12.406Z,93176.51
2019-03-05T05:09:40.824Z,93168.76
2019-03-05T05:12:09.311Z,93171.08
2019-03-05T05:14:37.759Z,93169.14
2019-03-05T05:17:06.248Z,93173.03
2019-03-05T05:19:34.680Z,93175.28
2019-03-05T05:22:03.224Z,93171.88
2019-03-05T05:24:32.017Z,93173.99
2019-03-05T05:27:00.451Z,93177.72
2019-03-05T05:29:28.880Z,93181.75
2019-03-05T05:31:58.391Z,93180.79
2019-03-05T05:34:27.091Z,93187.26
2019-03-05T05:36:55.541Z,93187.41
2019-03-05T05:40:00.343Z,93188.81
2019-03-05T05:42:28.780Z,93200.20
2019-03-05T05:44:57.210Z,93208.62
2019-03-05T05:47:25.897Z,93197.91
2019-03-05T05:49:54.332Z,93207.98
2019-03-05T05:52:22.754Z,93201.84
2019-03-05T05:54:51.202Z,93204.41
2019-03-05T05:57:19.896Z,93195.02
2019-03-05T05:59:48.368Z,93195.66
2019-03-05T06:02:16.721Z,93187.89
2019-03-05T06:04:45.531Z,93183.67
2019-03-05T06:07:14.019Z,93188.38
2019-03-05T06:09:42.435Z,93185.93
2019-03-05T06:12:10.880Z,93189.81
2019-03-05T06:14:39.328Z,93187.44
2019-03-05T06:17:07.727Z,93189.03
2019-03-05T06:19:36.177Z,93197.61
2019-03-05T06:22:04.703Z,93192.45
2019-03-05T06:24:33.134Z,93197.33
2019-03-05T06:27:01.637Z,93193.11
2019-03-05T06:29:30.093Z,93193.77
2019-03-05T06:31:58.597Z,93203.64
2019-03-05T06:34:27.060Z,93187.30
2019-03-05T06:36:55.999Z,93187.95
2019-03-05T06:39:24.488Z,93193.13
2019-03-05T06:41:53.071Z,93193.14
2019-03-05T06:44:21.539Z,93200.27
2019-03-05T06:46:50.151Z,93197.99
2019-03-05T06:49:18.641Z,93197.33
2019-03-05T06:51:47.154Z,93204.14
2019-03-05T06:54:15.613Z,93208.34
2019-03-05T06:56:44.041Z,93203.50
2019-03-05T06:59:12.460Z,93206.41
2019-03-05T07:01:40.970Z,93210.31
2019-03-05T07:04:09.537Z,93214.52
2019-03-05T07:06:51.856Z,93213.83
2019-03-05T07:09:23.320Z,93213.83
2019-03-05T07:12:20.460Z,93210.27
2019-03-05T07:15:19.353Z,93222.55
2019-03-05T07:18:23.585Z,93216.64
2019-03-05T07:21:06.431Z,93216.86
2019-03-05T07:23:49.234Z,93226.63
2019-03-05T07:26:17.659Z,93221.77
2019-03-05T07:28:46.153Z,93225.69
2019-03-05T07:31:14.677Z,93218.03
2019-03-05T07:33:43.091Z,93227.54
2019-03-05T07:36:11.689Z,93231.13
2019-03-05T07:38:40.189Z,93231.34
2019-03-05T07:41:08.694Z,93233.86
2019-03-05T07:43:37.378Z,93235.33
2019-03-05T07:46:05.842Z,93236.34
2019-03-05T07:48:34.272Z,93242.75
2019-03-05T07:51:02.692Z,93249.25
2019-03-05T07:53:31.249Z,93254.73
2019-03-05T07:55:59.672Z,93253.17
2019-03-05T07:58:28.209Z,93248.08
2019-03-05T08:00:56.714Z,93252.72
2019-03-05T08:03:25.106Z,93255.19
2019-03-05T08:05:53.583Z,93253.34
2019-03-05T08:08:57.133Z,93260.16
2019-03-05T08:11:25.639Z,93273.22
2019-03-05T08:14:15.253Z,93285.00
2019-03-05T08:16:43.672Z,93291.04
2019-03-05T08:19:12.134Z,93285.16
2019-03-05T08:21:40.601Z,93274.39
2019-03-05T08:24:09.155Z,93276.61
2019-03-05T08:26:37.609Z,93272.28
2019-03-05T08:29:06.131Z,93282.02
2019-03-05T08:31:34.677Z,93286.77
2019-03-05T08:34:03.106Z,93289.15
2019-03-05T08:36:31.661Z,93289.80
2019-03-05T08:39:00.190Z,93293.41
2019-03-05T08:41:28.772Z,93285.58
2019-03-05T08:43:58.855Z,93298.63
2019-03-05T08:46:27.336Z,93293.97
2019-03-05T08:48:55.764Z,93299.67
2019-03-05T08:51:24.224Z,93296.81
2019-03-05T08:53:52.654Z,93299.55
2019-03-05T08:56:21.122Z,93302.77
2019-03-05T08:58:49.547Z,93293.36
2019-03-05T09:01:18.126Z,93287.34
2019-03-05T09:03:46.611Z,93292.86
2019-03-05T09:06:15.207Z,93287.39
2019-03-05T09:08:43.790Z,93298.80
2019-03-05T09:11:12.335Z,93298.47
2019-03-05T09:13:40.972Z,93299.04
2019-03-05T09:16:09.970Z,93298.56
2019-03-05T09:18:38.425Z,93292.65
2019-03-05T09:21:07.105Z,93310.41
2019-03-05T09:23:35.635Z,93309.91
2019-03-05T09:26:04.313Z,93306.86
2019-03-05T09:28:32.837Z,93304.84
2019-03-05T09:31:01.318Z,93304.86
2019-03-05T09:33:29.809Z,93309.29
2019-03-05T09:35:58.344Z,93310.44
2019-03-05T09:38:26.766Z,93301.23
2019-03-05T09:40:55.245Z,93304.77
2019-03-05T09:43:23.743Z,93289.00
2019-03-05T09:45:52.303Z,93286.55
2019-03-05T09:48:20.752Z,93282.72
2019-03-05T09:50:49.191Z,93271.87
2019-03-05T09:53:17.681Z,93268.79
2019-03-05T09:55:46.204Z,93267.83
2019-03-05T09:58:14.623Z,93258.33
2019-03-05T10:00:43.250Z,93268.77
2019-03-05T10:03:12.906Z,93262.37
2019-03-05T10:05:41.443Z,93273.46
2019-03-05T10:08:10.351Z,93268.91
2019-03-05T10:10:38.855Z,93284.78
2019-03-05T10:13:07.671Z,93278.64
2019-03-05T10:15:36.089Z,93279.66
2019-03-05T10:18:12.799Z,93281.25
2019-03-05T10:20:36.327Z,93289.17
2019-03-05T10:23:05.409Z,93283.11
2019-03-05T10:25:34.019Z,93279.33
2019-03-05T10:28:02.562Z,93283.80
2019-03-05T10:30:39.470Z,93280.61
2019-03-05T10:33:15.634Z,93276.56
2019-03-05T10:35:44.399Z,93285.66
2019-03-05T10:38:13.427Z,93285.83
2019-03-05T10:40:46.601Z,93278.68
2019-03-05T10:43:16.453Z,93272.00
2019-03-05T10:45:47.609Z,93275.39
2019-03-05T10:48:18.441Z,93256.39
2019-03-05T10:50:47.621Z,93255.22
2019-03-05T10:53:16.331Z,93259.30
2019-03-05T10:55:44.886Z,93262.23
2019-03-05T10:58:15.944Z,93261.47
2019-03-05T11:00:49.179Z,93260.80
2019-03-05T11:03:19.917Z,93262.03
2019-03-05T11:05:49.557Z,93263.60
2019-03-05T11:08:23.884Z,93261.59
2019-03-05T11:10:53.305Z,93253.16
2019-03-05T11:13:21.971Z,93264.20
2019-03-05T11:15:53.775Z,93260.68
2019-03-05T11:18:29.572Z,93264.54
2019-03-05T11:20:52.755Z,93250.08
2019-03-05T11:23:21.186Z,93255.11
2019-03-05T11:25:49.749Z,93248.70
2019-03-05T11:28:18.320Z,93253.81
2019-03-05T11:30:46.923Z,93240.99
2019-03-05T11:33:15.487Z,93235.54
2019-03-05T11:35:44.098Z,93241.95
2019-03-05T11:38:12.732Z,93249.55
2019-03-05T11:40:41.654Z,93250.13
2019-03-05T11:43:12.896Z,93251.39
2019-03-05T11:45:42.746Z,93266.86
2019-03-05T11:48:11.813Z,93243.80
2019-03-05T11:50:40.486Z,93249.95
2019-03-05T11:53:09.108Z,93253.11
2019-03-05T11:55:37.778Z,93254.55
2019-03-05T11:58:06.405Z,93237.87
2019-03-05T12:00:52.933Z,93257.23
2019-03-05T12:03:21.431Z,93247.70
2019-03-05T12:05:49.943Z,93251.95
2019-03-05T12:08:18.471Z,93256.23
2019-03-05T12:10:46.971Z,93250.47
2019-03-05T12:13:15.836Z,93255.70
2019-03-05T12:15:45.749Z,93249.63
2019-03-05T12:18:14.371Z,93238.20
2019-03-05T12:20:42.969Z,93245.88
2019-03-05T12:23:11.836Z,93232.37
2019-03-05T12:25:41.120Z,93236.73
2019-03-05T12:28:11.164Z,93231.48
2019-03-05T12:30:40.197Z,93230.52
2019-03-05T12:33:08.790Z,93234.70
2019-03-05T12:35:37.293Z,93231.59
2019-03-05T12:38:05.999Z,93209.29
2019-03-05T12:40:34.613Z,93225.56
2019-03-05T12:43:03.153Z,93207.67
2019-03-05T12:45:31.711Z,93213.55
2019-03-05T12:48:00.261Z,93213.69
2019-03-05T12:50:30.347Z,93199.55
2019-03-05T12:52:58.950Z,93199.95
2019-03-05T12:55:27.505Z,93199.43
2019-03-05T12:57:56.103Z,93186.55
2019-03-05T13:00:28.729Z,93182.23
2019-03-05T13:02:57.338Z,93193.08
2019-03-05T13:05:28.955Z,93195.70
2019-03-05T13:07:57.765Z,93214.89
2019-03-05T13:10:34.777Z,93204.22
2019-03-05T13:13:00.856Z,93211.47
2019-03-05T13:15:39.175Z,93200.17
2019-03-05T13:18:08.237Z,93196.09
2019-03-05T13:20:36.735Z,93209.84
2019-03-05T13:23:09.534Z,93213.30
2019-03-05T13:25:38.183Z,93210.91
2019-03-05T13:28:06.139Z,93221.05
2019-03-05T13:30:34.649Z,93220.62
2019-03-05T13:33:03.163Z,93232.66
2019-03-05T13:35:32.175Z,93252.41
2019-03-05T13:38:07.534Z,93245.30
2019-03-05T13:40:38.413Z,93261.11
2019-03-05T13:43:06.921Z,93252.09
2019-03-05T13:45:35.584Z,93264.17
2019-03-05T13:48:09.698Z,93258.71
2019-03-05T13:51:04.988Z,93259.62
2019-03-05T13:54:00.014Z,93272.69
2019-03-05T13:56:30.646Z,93266.92
2019-03-05T13:59:18.534Z,93262.86
2019-03-05T14:01:47.088Z,93253.64
2019-03-05T14:04:30.780Z,93268.66
2019-03-05T14:07:14.461Z,93258.56
2019-03-05T14:09:41.749Z,93272.03
2019-03-05T14:12:10.412Z,93279.27
2019-03-05T14:14:38.838Z,93271.27
2019-03-05T14:17:17.727Z,93265.11
2019-03-05T14:19:46.195Z,93269.11
2019-03-05T14:22:14.613Z,93276.38
2019-03-05T14:24:43.278Z,93286.50
2019-03-05T14:27:11.913Z,93287.52
2019-03-05T14:29:40.387Z,93291.21
2019-03-05T14:32:09.281Z,93300.25
2019-03-05T14:34:37.842Z,93305.67
2019-03-05T14:37:06.433Z,93304.14
2019-03-05T14:39:36.005Z,93299.66
2019-03-05T14:42:06.766Z,93305.70
2019-03-05T14:44:39.892Z,93304.53
2019-03-05T14:47:06.343Z,93298.08
2019-03-05T14:49:34.961Z,93296.46
2019-03-05T14:52:03.458Z,93290.00
2019-03-05T14:54:31.918Z,93291.78
2019-03-05T14:57:00.317Z,93285.64
2019-03-05T14:59:28.779Z,93286.93
2019-03-05T15:01:57.293Z,93290.98
2019-03-05T15:04:25.887Z,93282.70
2019-03-05T15:06:54.467Z,93276.93
2019-03-05T15:09:22.864Z,93281.81
2019-03-05T15:11:51.372Z,93273.28
2019-03-05T15:14:19.823Z,93281.13
2019-03-05T15:16:48.337Z,93292.88
2019-03-05T15:19:21.266Z,93286.57
2019-03-05T15:21:48.014Z,93289.62
2019-03-05T15:24:16.518Z,93286.97
2019-03-05T15:26:44.989Z,93299.73
2019-03-05T15:29:13.480Z,93298.08
2019-03-05T15:31:41.991Z,93288.38
2019-03-05T15:34:10.502Z,93286.95
2019-03-05T15:36:39.042Z,93284.80
2019-03-05T15:39:07.579Z,93282.85
2019-03-05T15:41:36.035Z,93283.17
2019-03-05T15:44:04.586Z,93282.08
2019-03-05T15:46:33.007Z,93278.95
2019-03-05T15:49:01.507Z,93274.98
2019-03-05T15:51:30.134Z,93269.06
2019-03-05T15:53:58.728Z,93260.98
2019-03-05T15:56:27.528Z,93271.27
2019-03-05T15:58:57.192Z,93266.69
2019-03-05T16:01:25.916Z,93265.97
2019-03-05T16:03:54.348Z,93265.44
2019-03-05T16:06:22.858Z,93263.56
2019-03-05T16:08:51.298Z,93259.16
2019-03-05T16:11:20.098Z,93265.38
2019-03-05T16:13:52.289Z,93273.04
2019-03-05T16:16:19.412Z,93277.62
2019-03-05T16:18:48.043Z,93279.95
2019-03-05T16:21:16.577Z,93285.44
2019-03-05T16:23:45.067Z,93281.53
2019-03-05T16:26:13.531Z,93295.13
2019-03-05T16:28:43.485Z,93298.05
2019-03-05T16:31:26.017Z,93296.67
2019-03-05T16:33:59.088Z,93309.27
2019-03-05T16:36:45.409Z,93302.34
2019-03-05T16:39:15.637Z,93314.25
2019-03-05T16:41:58.305Z,93330.12
2019-03-05T16:44:40.385Z,93338.31
2019-03-05T16:47:10.526Z,93341.91
2019-03-05T16:49:46.537Z,93340.63
2019-03-05T16:52:16.668Z,93344.29
2019-03-05T16:55:03.002Z,93343.65
2019-03-05T16:57:49.587Z,93363.73
2019-03-05T17:00:29.060Z,93354.02
2019-03-05T17:03:15.756Z,93371.70
2019-03-05T17:05:54.933Z,93375.77
2019-03-05T17:08:30.759Z,93380.27
2019-03-05T17:11:03.673Z,93387.51
2019-03-05T17:13:32.228Z,93396.45
2019-03-05T17:16:00.856Z,93396.94
2019-03-05T17:18:29.409Z,93408.52
2019-03-05T17:20:57.988Z,93409.16
2019-03-05T17:23:26.593Z,93413.84
2019-03-05T17:25:55.130Z,93410.83
2019-03-05T17:28:23.621Z,93405.66
2019-03-05T17:30:52.151Z,93408.27
2019-03-05T17:33:20.811Z,93402.38
2019-03-05T17:35:49.308Z,93406.40
2019-03-05T17:38:17.844Z,93413.59
2019-03-05T17:40:46.463Z,93410.98
2019-03-05T17:43:14.883Z,93416.19
2019-03-05T17:45:43.488Z,93412.97
2019-03-05T17:48:11.936Z,93411.92
2019-03-05T17:50:40.466Z,93415.21
2019-03-05T17:53:09.033Z,93423.56
2019-03-05T17:55:37.545Z,93423.30
2019-03-05T17:58:06.038Z,93428.02
2019-03-05T18:00:39.064Z,93433.31
2019-03-05T18:03:07.560Z,93438.78
2019-03-05T18:05:36.227Z,93444.23
2019-03-05T18:08:04.783Z,93449.21
2019-03-05T18:10:33.406Z,93460.01
2019-03-05T18:13:01.921Z,93460.01
2019-03-05T18:15:30.478Z,93451.44
2019-03-05T18:17:58.933Z,93460.27
2019-03-05T18:20:27.539Z,93463.23
2019-03-05T18:22:56.048Z,93468.75
2019-03-05T18:25:24.636Z,93470.92
2019-03-05T18:27:53.130Z,93468.57
2019-03-05T18:30:29.794Z,93464.45
2019-03-05T18:32:59.906Z,93469.82
2019-03-05T18:35:28.466Z,93462.83
2019-03-05T18:37:57.057Z,93465.43
2019-03-05T18:40:25.762Z,93465.03
2019-03-05T18:42:54.276Z,93469.14
2019-03-05T18:45:34.131Z,93467.34
2019-03-05T18:48:02.655Z,93479.45
2019-03-05T18:50:31.540Z,93478.02
2019-03-05T18:53:01.532Z,93476.45
2019-03-05T18:55:30.389Z,93474.95
2019-03-05T18:57:58.922Z,93477.39
2019-03-05T19:00:32.811Z,93488.55
2019-03-05T19:03:09.651Z,93482.34
2019-03-05T19:05:38.666Z,93483.64
2019-03-05T19:08:07.159Z,93486.93
2019-03-05T19:10:35.647Z,93494.12
2019-03-05T19:13:04.456Z,93488.91
2019-03-05T19:15:33.075Z,93492.13
2019-03-05T19:18:01.773Z,93487.26
2019-03-05T19:20:31.282Z,93495.42
2019-03-05T19:23:00.072Z,93499.00
2019-03-05T19:25:33.685Z,93497.70
2019-03-05T19:28:02.227Z,93498.02
2019-03-05T19:30:42.766Z,93502.58
2019-03-05T19:33:11.263Z,93501.30
2019-03-05T19:35:39.856Z,93504.88
2019-03-05T19:38:08.805Z,93508.81
2019-03-05T19:40:47.695Z,93506.21
2019-03-05T19:43:16.323Z,93506.83
2019-03-05T19:45:44.699Z,93501.69
2019-03-05T19:48:13.436Z,93504.61
2019-03-05T19:50:42.347Z,93501.03
2019-03-05T19:53:10.908Z,93494.56
2019-03-05T19:55:39.706Z,93505.96
2019-03-05T19:58:08.680Z,93512.70
2019-03-05T20:00:40.491Z,93512.77
2019-03-05T20:03:09.164Z,93507.23
2019-03-05T20:05:37.726Z,93512.77
2019-03-05T20:08:06.188Z,93515.66
2019-03-05T20:10:38.680Z,93511.77
2019-03-05T20:13:07.269Z,93518.59
2019-03-05T20:15:35.895Z,93517.67
2019-03-05T20:18:04.611Z,93520.13
2019-03-05T20:20:33.137Z,93519.47
2019-03-05T20:23:01.794Z,93519.98
2019-03-05T20:25:31.588Z,93517.66
2019-03-05T20:28:00.100Z,93517.67
2019-03-05T20:30:28.709Z,93519.77
2019-03-05T20:32:57.402Z,93520.27
2019-03-05T20:35:26.002Z,93519.89
2019-03-05T20:37:54.452Z,93515.64
2019-03-05T20:40:27.654Z,93519.56
2019-03-05T20:42:56.265Z,93519.23
2019-03-05T20:45:33.143Z,93526.05
2019-03-05T20:48:01.655Z,93519.27
2019-03-05T20:50:30.425Z,93521.63
2019-03-05T20:52:59.154Z,93518.56
2019-03-05T20:55:28.046Z,93521.84
2019-03-05T20:57:56.686Z,93523.77
2019-03-05T21:00:36.619Z,93513.72
2019-03-05T21:03:10.276Z,93515.66
2019-03-05T21:05:49.017Z,93523.09
2019-03-05T21:08:17.621Z,93517.53
2019-03-05T21:10:46.209Z,93526.31
2019-03-05T21:13:14.775Z,93524.66
2019-03-05T21:15:43.263Z,93523.22
2019-03-05T21:18:16.593Z,93522.70
2019-03-05T21:20:47.080Z,93518.48
2019-03-05T21:23:15.693Z,93527.23
2019-03-05T21:25:44.215Z,93518.41
2019-03-05T21:28:12.704Z,93511.98
2019-03-05T21:30:42.296Z,93517.53
2019-03-05T21:33:10.865Z,93512.23
2019-03-05T21:35:39.754Z,93508.06
2019-03-05T21:38:08.243Z,93513.63
2019-03-05T21:40:36.798Z,93511.39
2019-03-05T21:43:05.353Z,93513.79
2019-03-05T21:45:48.131Z,93502.44
2019-03-05T21:48:16.594Z,93503.77
2019-03-05T21:50:45.156Z,93501.89
2019-03-05T21:53:13.862Z,93499.48
2019-03-05T21:55:42.277Z,93503.09
2019-03-05T21:58:11.117Z,93505.08
2019-03-05T22:00:40.780Z,93504.49
2019-03-05T22:03:09.280Z,93506.15
2019-03-05T22:05:37.797Z,93498.11
2019-03-05T22:08:06.370Z,93501.33
2019-03-05T22:10:35.169Z,93502.98
2019-03-05T22:13:03.719Z,93506.51
2019-03-05T22:15:33.959Z,93506.53
2019-03-05T22:18:02.471Z,93512.11
2019-03-05T22:20:31.002Z,93509.19
2019-03-05T22:22:59.754Z,93508.86
2019-03-05T22:25:29.227Z,93497.78
2019-03-05T22:27:58.186Z,93505.94
2019-03-05T22:30:34.541Z,93503.03
2019-03-05T22:33:03.047Z,93505.27
2019-03-05T22:35:31.572Z,93504.23
2019-03-05T22:38:00.158Z,93502.92
2019-03-05T22:40:29.126Z,93510.44
2019-03-05T22:42:57.687Z,93502.98
2019-03-05T22:45:27.484Z,93515.66
2019-03-05T22:47:56.079Z,93516.37
2019-03-05T22:50:24.622Z,93515.55
2019-03-05T22:52:53.119Z,93519.80
2019-03-05T22:55:21.724Z,93526.74
2019-03-05T22:57:50.236Z,93510.78
2019-03-05T23:00:32.057Z,93517.91
2019-03-05T23:03:01.710Z,93516.34
2019-03-05T23:05:30.679Z,93522.95
2019-03-05T23:07:59.187Z,93519.16
2019-03-05T23:10:27.699Z,93524.72
2019-03-05T23:12:56.249Z,93521.08
2019-03-05T23:15:25.016Z,93516.27
2019-03-05T23:17:53.634Z,93519.23
2019-03-05T23:20:22.208Z,93519.61
2019-03-05T23:22:50.754Z,93518.78
2019-03-05T23:25:20.735Z,93515.17
2019-03-05T23:27:49.241Z,93504.91
2019-03-05T23:30:21.998Z,93502.69
2019-03-05T23:32:53.901Z,93497.67
2019-03-05T23:35:22.473Z,93497.48
2019-03-05T23:37:51.063Z,93491.66
2019-03-05T23:40:19.990Z,93491.31
2019-03-05T23:42:48.575Z,93475.81
2019-03-05T23:45:18.419Z,93473.05
2019-03-05T23:47:47.223Z,93466.22
2019-03-05T23:50:18.881Z,93471.28
2019-03-05T23:52:47.437Z,93472.86
2019-03-05T23:55:16.634Z,93472.28
2019-03-05T23:57:45.414Z,93468.08
